createdAt,value
2018-09-17T00:00:38.645Z,1019.41
2018-09-17T00:01:39.252Z,1019.36
2018-09-17T00:02:39.815Z,1019.37
2018-09-17T00:03:40.398Z,1019.41
2018-09-17T00:04:40.974Z,1019.42
2018-09-17T00:05:41.554Z,1019.47
2018-09-17T00:07:26.752Z,1019.40
2018-09-17T00:08:27.329Z,1019.38
2018-09-17T00:09:27.910Z,1019.39
2018-09-17T00:10:28.489Z,1019.31
2018-09-17T00:11:29.066Z,1019.31
2018-09-17T00:12:29.643Z,1019.38
2018-09-17T00:13:30.222Z,1019.32
2018-09-17T00:14:30.800Z,1019.34
2018-09-17T00:15:31.378Z,1019.37
2018-09-17T00:16:31.958Z,1019.32
2018-09-17T00:17:32.543Z,1019.39
2018-09-17T00:18:33.129Z,1019.35
2018-09-17T00:19:33.761Z,1019.34
2018-09-17T00:20:34.348Z,1019.28
2018-09-17T00:21:34.929Z,1019.37
2018-09-17T00:22:35.513Z,1019.36
2018-09-17T00:23:36.099Z,1019.29
2018-09-17T00:24:36.734Z,1019.32
2018-09-17T00:25:37.416Z,1019.32
2018-09-17T00:26:38.001Z,1019.30
2018-09-17T00:27:38.588Z,1019.30
2018-09-17T00:28:39.172Z,1019.27
2018-09-17T00:29:39.755Z,1019.28
2018-09-17T00:31:24.849Z,1019.34
2018-09-17T00:32:25.430Z,1019.31
2018-09-17T00:33:26.012Z,1019.19
2018-09-17T00:34:26.634Z,1019.28
2018-09-17T00:35:27.213Z,1019.23
2018-09-17T00:36:27.792Z,1019.20
2018-09-17T00:37:28.371Z,1019.19
2018-09-17T00:38:28.950Z,1019.23
2018-09-17T00:39:29.586Z,1019.18
2018-09-17T00:40:30.171Z,1019.13
2018-09-17T00:41:30.760Z,1019.18
2018-09-17T00:42:31.341Z,1019.21
2018-09-17T00:43:32.075Z,1019.18
2018-09-17T00:44:32.658Z,1019.18
2018-09-17T00:45:33.235Z,1019.21
2018-09-17T00:46:33.814Z,1019.21
2018-09-17T00:47:34.406Z,1019.18
2018-09-17T00:48:34.987Z,1019.09
2018-09-17T00:49:35.563Z,1019.15
2018-09-17T00:50:36.151Z,1019.15
2018-09-17T00:51:36.737Z,1019.11
2018-09-17T00:52:37.320Z,1019.13
2018-09-17T00:53:37.899Z,1019.17
2018-09-17T00:54:38.577Z,1019.10
2018-09-17T00:55:39.160Z,1019.17
2018-09-17T00:56:39.740Z,1019.19
2018-09-17T00:57:40.425Z,1019.18
2018-09-17T00:58:40.955Z,1019.18
2018-09-17T00:59:41.589Z,1019.19
2018-09-17T01:00:42.170Z,1019.24
2018-09-17T01:01:42.756Z,1019.17
2018-09-17T01:02:43.342Z,1019.17
2018-09-17T01:03:43.920Z,1019.12
2018-09-17T01:04:44.507Z,1019.21
2018-09-17T01:05:45.093Z,1019.17
2018-09-17T01:06:45.680Z,1019.15
2018-09-17T01:07:46.263Z,1019.11
2018-09-17T01:08:46.849Z,1019.14
2018-09-17T01:09:47.431Z,1019.19
2018-09-17T01:10:48.020Z,1019.21
2018-09-17T01:11:48.644Z,1019.17
2018-09-17T01:12:49.231Z,1019.21
2018-09-17T01:13:49.811Z,1019.15
2018-09-17T01:14:50.451Z,1019.23
2018-09-17T01:15:51.023Z,1019.13
2018-09-17T01:16:51.611Z,1019.16
2018-09-17T01:17:52.194Z,1019.20
2018-09-17T01:18:52.828Z,1019.16
2018-09-17T01:19:53.415Z,1019.17
2018-09-17T01:20:53.997Z,1019.14
2018-09-17T01:21:54.573Z,1019.12
2018-09-17T01:22:55.160Z,1019.10
2018-09-17T01:23:55.742Z,1019.18
2018-09-17T01:24:56.329Z,1019.09
2018-09-17T01:25:56.910Z,1019.11
2018-09-17T01:26:57.496Z,1019.11
2018-09-17T01:27:58.084Z,1019.07
2018-09-17T01:28:58.714Z,1018.95
2018-09-17T01:29:59.300Z,1018.96
2018-09-17T01:30:59.935Z,1018.98
2018-09-17T01:32:00.520Z,1018.97
2018-09-17T01:33:01.099Z,1018.94
2018-09-17T01:34:01.687Z,1018.96
2018-09-17T01:35:02.274Z,1018.97
2018-09-17T01:36:02.904Z,1018.93
2018-09-17T01:37:03.491Z,1018.97
2018-09-17T01:38:04.075Z,1018.93
2018-09-17T01:39:04.657Z,1018.93
2018-09-17T01:40:05.242Z,1018.82
2018-09-17T01:41:05.829Z,1018.95
2018-09-17T01:42:06.413Z,1018.90
2018-09-17T01:43:06.997Z,1018.90
2018-09-17T01:44:07.581Z,1018.92
2018-09-17T01:45:08.214Z,1018.80
2018-09-17T01:46:08.879Z,1018.90
2018-09-17T01:47:09.426Z,1018.89
2018-09-17T01:48:10.015Z,1018.81
2018-09-17T01:49:10.656Z,1018.80
2018-09-17T01:50:11.234Z,1018.82
2018-09-17T01:51:11.822Z,1018.87
2018-09-17T01:52:12.399Z,1018.89
2018-09-17T01:53:13.035Z,1018.79
2018-09-17T01:54:13.611Z,1018.77
2018-09-17T01:55:14.196Z,1018.87
2018-09-17T01:56:14.780Z,1018.79
2018-09-17T01:57:15.365Z,1018.88
2018-09-17T01:58:15.949Z,1018.83
2018-09-17T01:59:16.531Z,1018.73
2018-09-17T02:00:17.118Z,1018.77
2018-09-17T02:01:17.693Z,1018.74
2018-09-17T02:02:18.330Z,1018.76
2018-09-17T02:03:18.916Z,1018.73
2018-09-17T02:04:19.501Z,1018.74
2018-09-17T02:05:20.084Z,1018.71
2018-09-17T02:06:20.711Z,1018.74
2018-09-17T02:07:21.299Z,1018.70
2018-09-17T02:08:21.883Z,1018.71
2018-09-17T02:09:22.469Z,1018.64
2018-09-17T02:10:23.045Z,1018.70
2018-09-17T02:11:23.627Z,1018.78
2018-09-17T02:12:24.266Z,1018.73
2018-09-17T02:13:24.851Z,1018.73
2018-09-17T02:14:25.454Z,1018.71
2018-09-17T02:15:26.020Z,1018.69
2018-09-17T02:16:26.598Z,1018.66
2018-09-17T02:17:27.182Z,1018.70
2018-09-17T02:18:27.762Z,1018.70
2018-09-17T02:19:28.393Z,1018.69
2018-09-17T02:20:28.979Z,1018.65
2018-09-17T02:21:29.567Z,1018.63
2018-09-17T02:22:30.154Z,1018.57
2018-09-17T02:23:30.728Z,1018.73
2018-09-17T02:24:31.317Z,1018.57
2018-09-17T02:25:31.947Z,1018.55
2018-09-17T02:26:32.535Z,1018.65
2018-09-17T02:27:33.171Z,1018.60
2018-09-17T02:28:33.755Z,1018.53
2018-09-17T02:29:34.338Z,1018.50
2018-09-17T02:30:34.923Z,1018.53
2018-09-17T02:31:35.505Z,1018.57
2018-09-17T02:32:36.088Z,1018.52
2018-09-17T02:33:36.675Z,1018.54
2018-09-17T02:34:37.257Z,1018.50
2018-09-17T02:35:37.840Z,1018.52
2018-09-17T02:36:38.425Z,1018.50
2018-09-17T02:37:39.060Z,1018.55
2018-09-17T02:38:39.638Z,1018.47
2018-09-17T02:39:40.225Z,1018.52
2018-09-17T02:40:40.800Z,1018.46
2018-09-17T02:41:41.386Z,1018.50
2018-09-17T02:42:42.068Z,1018.50
2018-09-17T02:43:42.657Z,1018.49
2018-09-17T02:44:43.241Z,1018.53
2018-09-17T02:45:43.829Z,1018.46
2018-09-17T02:46:44.454Z,1018.53
2018-09-17T02:47:45.040Z,1018.52
2018-09-17T02:48:45.669Z,1018.55
2018-09-17T02:49:46.256Z,1018.53
2018-09-17T02:50:46.939Z,1018.50
2018-09-17T02:51:47.511Z,1018.52
2018-09-17T02:52:48.147Z,1018.53
2018-09-17T02:53:48.728Z,1018.53
2018-09-17T02:54:49.315Z,1018.44
2018-09-17T02:55:49.898Z,1018.43
2018-09-17T02:56:50.539Z,1018.46
2018-09-17T02:57:51.176Z,1018.47
2018-09-17T02:58:51.752Z,1018.40
2018-09-17T02:59:52.335Z,1018.48
2018-09-17T03:00:52.965Z,1018.41
2018-09-17T03:01:53.552Z,1018.38
2018-09-17T03:02:54.137Z,1018.38
2018-09-17T03:03:54.724Z,1018.41
2018-09-17T03:04:55.308Z,1018.37
2018-09-17T03:05:55.889Z,1018.39
2018-09-17T03:06:56.528Z,1018.29
2018-09-17T03:07:57.108Z,1018.35
2018-09-17T03:08:57.690Z,1018.29
2018-09-17T03:09:58.329Z,1018.30
2018-09-17T03:10:58.942Z,1018.20
2018-09-17T03:11:59.497Z,1018.18
2018-09-17T03:13:00.087Z,1018.23
2018-09-17T03:14:00.660Z,1018.27
2018-09-17T03:15:01.246Z,1018.24
2018-09-17T03:16:01.827Z,1018.24
2018-09-17T03:17:02.412Z,1018.22
2018-09-17T03:18:02.992Z,1018.20
2018-09-17T03:19:03.625Z,1018.15
2018-09-17T03:20:04.263Z,1018.13
2018-09-17T03:21:04.847Z,1018.08
2018-09-17T03:22:05.431Z,1018.13
2018-09-17T03:23:06.017Z,1018.08
2018-09-17T03:24:06.649Z,1018.06
2018-09-17T03:25:07.290Z,1018.07
2018-09-17T03:26:07.874Z,1018.02
2018-09-17T03:27:08.458Z,1018.07
2018-09-17T03:28:09.042Z,1017.96
2018-09-17T03:29:09.679Z,1017.95
2018-09-17T03:30:10.268Z,1018.04
2018-09-17T03:31:10.851Z,1018.04
2018-09-17T03:32:11.485Z,1018.03
2018-09-17T03:33:12.064Z,1017.99
2018-09-17T03:34:12.652Z,1017.99
2018-09-17T03:35:13.238Z,1017.94
2018-09-17T03:36:13.825Z,1017.98
2018-09-17T03:37:14.408Z,1017.93
2018-09-17T03:38:15.039Z,1017.92
2018-09-17T03:39:15.675Z,1017.95
2018-09-17T03:40:16.266Z,1017.92
2018-09-17T03:41:16.845Z,1017.82
2018-09-17T03:42:17.476Z,1017.85
2018-09-17T03:43:18.059Z,1017.93
2018-09-17T03:44:18.688Z,1017.84
2018-09-17T03:45:19.271Z,1017.91
2018-09-17T03:46:19.933Z,1017.83
2018-09-17T03:47:20.440Z,1017.86
2018-09-17T03:48:21.072Z,1017.92
2018-09-17T03:49:21.656Z,1017.92
2018-09-17T03:50:22.234Z,1017.92
2018-09-17T03:51:22.816Z,1018.01
2018-09-17T03:52:23.399Z,1017.97
2018-09-17T03:53:23.987Z,1017.93
2018-09-17T03:54:24.571Z,1017.94
2018-09-17T03:55:25.192Z,1017.94
2018-09-17T03:56:25.826Z,1017.94
2018-09-17T03:57:26.464Z,1017.94
2018-09-17T03:58:27.048Z,1018.00
2018-09-17T03:59:27.638Z,1017.99
2018-09-17T04:00:28.218Z,1018.06
2018-09-17T04:01:28.801Z,1017.99
2018-09-17T04:02:29.385Z,1017.97
2018-09-17T04:03:29.973Z,1018.03
2018-09-17T04:04:30.561Z,1017.99
2018-09-17T04:05:31.145Z,1017.99
2018-09-17T04:06:31.775Z,1017.99
2018-09-17T04:07:32.359Z,1018.04
2018-09-17T04:08:32.941Z,1017.98
2018-09-17T04:09:33.529Z,1018.01
2018-09-17T04:10:34.108Z,1017.99
2018-09-17T04:11:34.689Z,1018.01
2018-09-17T04:12:35.276Z,1018.01
2018-09-17T04:13:35.909Z,1017.98
2018-09-17T04:14:36.494Z,1017.93
2018-09-17T04:15:37.072Z,1017.92
2018-09-17T04:16:37.708Z,1017.87
2018-09-17T04:17:38.287Z,1017.87
2018-09-17T04:18:38.875Z,1017.87
2018-09-17T04:19:39.501Z,1017.89
2018-09-17T04:20:40.087Z,1017.85
2018-09-17T04:21:40.667Z,1017.97
2018-09-17T04:22:41.251Z,1017.97
2018-09-17T04:23:41.831Z,1017.90
2018-09-17T04:24:42.414Z,1017.96
2018-09-17T04:25:43.001Z,1017.88
2018-09-17T04:26:43.587Z,1017.90
2018-09-17T04:27:44.173Z,1017.90
2018-09-17T04:28:44.755Z,1017.94
2018-09-17T04:29:45.390Z,1017.88
2018-09-17T04:30:45.973Z,1017.88
2018-09-17T04:31:46.604Z,1017.91
2018-09-17T04:32:47.234Z,1017.94
2018-09-17T04:33:47.820Z,1017.95
2018-09-17T04:34:48.406Z,1017.92
2018-09-17T04:35:48.991Z,1017.99
2018-09-17T04:36:49.575Z,1017.91
2018-09-17T04:37:50.154Z,1017.87
2018-09-17T04:38:50.732Z,1017.90
2018-09-17T04:39:51.370Z,1017.93
2018-09-17T04:40:51.899Z,1017.91
2018-09-17T04:41:52.478Z,1017.94
2018-09-17T04:42:53.065Z,1017.93
2018-09-17T04:43:53.650Z,1017.93
2018-09-17T04:44:54.234Z,1017.91
2018-09-17T04:45:54.818Z,1017.88
2018-09-17T04:46:55.403Z,1017.94
2018-09-17T04:47:55.978Z,1017.86
2018-09-17T04:48:56.617Z,1017.87
2018-09-17T04:49:57.197Z,1017.90
2018-09-17T04:50:57.774Z,1017.81
2018-09-17T04:51:58.354Z,1017.81
2018-09-17T04:52:58.991Z,1017.84
2018-09-17T04:53:59.570Z,1017.85
2018-09-17T04:55:00.154Z,1017.82
2018-09-17T04:56:00.729Z,1017.83
2018-09-17T04:57:01.516Z,1017.80
2018-09-17T04:58:02.092Z,1017.76
2018-09-17T04:59:02.680Z,1017.79
2018-09-17T05:00:03.259Z,1017.79
2018-09-17T05:01:03.843Z,1017.87
2018-09-17T05:02:04.421Z,1017.89
2018-09-17T05:03:05.009Z,1017.85
2018-09-17T05:04:05.594Z,1017.81
2018-09-17T05:05:06.176Z,1017.88
2018-09-17T05:06:06.809Z,1017.92
2018-09-17T05:07:07.619Z,1017.87
2018-09-17T05:08:08.172Z,1017.89
2018-09-17T05:09:08.762Z,1017.89
2018-09-17T05:10:09.351Z,1017.84
2018-09-17T05:12:11.554Z,1017.93
2018-09-17T05:13:12.203Z,1017.90
2018-09-17T05:14:12.719Z,1017.87
2018-09-17T05:15:13.303Z,1017.90
2018-09-17T05:16:13.885Z,1017.94
2018-09-17T05:17:14.469Z,1017.90
2018-09-17T05:18:15.100Z,1017.87
2018-09-17T05:19:15.683Z,1017.87
2018-09-17T05:20:16.262Z,1017.94
2018-09-17T05:21:16.842Z,1017.92
2018-09-17T05:22:17.426Z,1018.00
2018-09-17T05:23:18.012Z,1017.89
2018-09-17T05:24:18.599Z,1017.98
2018-09-17T05:25:19.181Z,1017.92
2018-09-17T05:26:19.814Z,1017.89
2018-09-17T05:27:20.451Z,1017.94
2018-09-17T05:28:21.036Z,1017.98
2018-09-17T05:29:21.668Z,1017.95
2018-09-17T05:30:22.304Z,1017.93
2018-09-17T05:31:22.884Z,1017.96
2018-09-17T05:32:23.566Z,1018.05
2018-09-17T05:33:24.143Z,1018.02
2018-09-17T05:34:24.732Z,1018.04
2018-09-17T05:35:25.311Z,1018.00
2018-09-17T05:36:25.899Z,1017.98
2018-09-17T05:37:26.528Z,1018.00
2018-09-17T05:38:27.116Z,1018.00
2018-09-17T05:39:27.701Z,1018.10
2018-09-17T05:40:28.278Z,1018.08
2018-09-17T05:41:28.864Z,1018.09
2018-09-17T05:42:29.448Z,1018.09
2018-09-17T05:43:30.027Z,1018.03
2018-09-17T05:44:30.655Z,1018.05
2018-09-17T05:45:31.195Z,1018.03
2018-09-17T05:46:31.778Z,1018.05
2018-09-17T05:47:32.361Z,1018.02
2018-09-17T05:48:32.998Z,1018.05
2018-09-17T05:49:33.629Z,1018.07
2018-09-17T05:50:34.211Z,1018.08
2018-09-17T05:51:34.799Z,1018.21
2018-09-17T05:52:35.379Z,1018.16
2018-09-17T05:53:35.987Z,1018.15
2018-09-17T05:54:36.547Z,1018.14
2018-09-17T05:55:37.125Z,1018.16
2018-09-17T05:56:37.714Z,1018.12
2018-09-17T05:57:38.295Z,1018.14
2018-09-17T05:58:38.876Z,1018.13
2018-09-17T05:59:39.485Z,1018.11
2018-09-17T06:00:40.140Z,1018.21
2018-09-17T06:01:40.728Z,1018.15
2018-09-17T06:02:41.305Z,1018.09
2018-09-17T06:03:41.889Z,1018.16
2018-09-17T06:04:42.523Z,1018.15
2018-09-17T06:05:43.187Z,1018.13
2018-09-17T06:06:43.690Z,1018.14
2018-09-17T06:07:44.273Z,1018.11
2018-09-17T06:08:44.854Z,1018.11
2018-09-17T06:09:45.452Z,1018.11
2018-09-17T06:10:46.024Z,1018.08
2018-09-17T06:11:46.649Z,1018.13
2018-09-17T06:12:47.244Z,1018.16
2018-09-17T06:13:47.829Z,1018.22
2018-09-17T06:14:48.415Z,1018.20
2018-09-17T06:15:49.045Z,1018.24
2018-09-17T06:16:49.629Z,1018.30
2018-09-17T06:17:50.212Z,1018.24
2018-09-17T06:18:50.794Z,1018.34
2018-09-17T06:19:51.373Z,1018.31
2018-09-17T06:20:51.959Z,1018.33
2018-09-17T06:21:52.583Z,1018.38
2018-09-17T06:22:53.121Z,1018.38
2018-09-17T06:23:53.704Z,1018.27
2018-09-17T06:24:54.340Z,1018.32
2018-09-17T06:25:54.918Z,1018.31
2018-09-17T06:26:55.504Z,1018.37
2018-09-17T06:27:56.091Z,1018.34
2018-09-17T06:28:56.671Z,1018.33
2018-09-17T06:29:57.247Z,1018.35
2018-09-17T06:30:57.830Z,1018.38
2018-09-17T06:31:58.478Z,1018.40
2018-09-17T06:32:59.100Z,1018.33
2018-09-17T06:33:59.684Z,1018.41
2018-09-17T06:35:00.268Z,1018.42
2018-09-17T06:36:00.892Z,1018.38
2018-09-17T06:37:01.475Z,1018.36
2018-09-17T06:38:02.054Z,1018.30
2018-09-17T06:39:02.639Z,1018.31
2018-09-17T06:40:03.216Z,1018.26
2018-09-17T06:41:03.850Z,1018.35
2018-09-17T06:42:04.486Z,1018.28
2018-09-17T06:43:05.068Z,1018.28
2018-09-17T06:44:05.647Z,1018.33
2018-09-17T06:45:06.232Z,1018.35
2018-09-17T06:46:06.808Z,1018.33
2018-09-17T06:47:07.397Z,1018.35
2018-09-17T06:48:07.974Z,1018.33
2018-09-17T06:49:08.607Z,1018.33
2018-09-17T06:50:09.202Z,1018.38
2018-09-17T06:51:09.821Z,1018.37
2018-09-17T06:52:10.404Z,1018.37
2018-09-17T06:53:10.993Z,1018.41
2018-09-17T06:54:11.572Z,1018.40
2018-09-17T06:55:12.155Z,1018.41
2018-09-17T06:56:12.745Z,1018.41
2018-09-17T06:57:13.328Z,1018.41
2018-09-17T06:58:13.913Z,1018.53
2018-09-17T06:59:14.544Z,1018.49
2018-09-17T07:00:15.128Z,1018.52
2018-09-17T07:01:15.721Z,1018.53
2018-09-17T07:02:16.301Z,1018.51
2018-09-17T07:03:16.887Z,1018.52
2018-09-17T07:04:17.472Z,1018.56
2018-09-17T07:05:18.055Z,1018.53
2018-09-17T07:06:18.709Z,1018.54
2018-09-17T07:07:19.274Z,1018.51
2018-09-17T07:08:19.856Z,1018.48
2018-09-17T07:09:20.642Z,1018.57
2018-09-17T07:10:21.230Z,1018.48
2018-09-17T07:11:21.812Z,1018.42
2018-09-17T07:12:22.387Z,1018.42
2018-09-17T07:13:22.973Z,1018.49
2018-09-17T07:14:23.555Z,1018.38
2018-09-17T07:15:24.148Z,1018.51
2018-09-17T07:16:24.773Z,1018.49
2018-09-17T07:17:25.359Z,1018.41
2018-09-17T07:18:25.939Z,1018.47
2018-09-17T07:19:26.517Z,1018.38
2018-09-17T07:20:27.101Z,1018.51
2018-09-17T07:21:27.685Z,1018.41
2018-09-17T07:22:28.272Z,1018.46
2018-09-17T07:23:28.857Z,1018.55
2018-09-17T07:24:29.441Z,1018.55
2018-09-17T07:25:30.020Z,1018.55
2018-09-17T07:26:30.809Z,1018.55
2018-09-17T07:27:31.386Z,1018.49
2018-09-17T07:28:32.017Z,1018.47
2018-09-17T07:29:32.599Z,1018.48
2018-09-17T07:30:33.183Z,1018.43
2018-09-17T07:31:33.771Z,1018.49
2018-09-17T07:32:34.349Z,1018.61
2018-09-17T07:33:34.937Z,1018.50
2018-09-17T07:34:35.514Z,1018.54
2018-09-17T07:35:36.143Z,1018.57
2018-09-17T07:36:36.754Z,1018.48
2018-09-17T07:37:37.316Z,1018.54
2018-09-17T07:38:37.900Z,1018.53
2018-09-17T07:39:38.486Z,1018.53
2018-09-17T07:40:39.092Z,1018.56
2018-09-17T07:41:39.650Z,1018.52
2018-09-17T07:42:40.236Z,1018.54
2018-09-17T07:43:40.808Z,1018.58
2018-09-17T07:44:41.389Z,1018.59
2018-09-17T07:45:41.971Z,1018.67
2018-09-17T07:46:42.644Z,1018.64
2018-09-17T07:47:43.262Z,1018.67
2018-09-17T07:48:43.860Z,1018.68
2018-09-17T07:49:44.445Z,1018.69
2018-09-17T07:50:45.029Z,1018.71
2018-09-17T07:51:45.608Z,1018.73
2018-09-17T07:52:46.215Z,1018.75
2018-09-17T07:53:46.826Z,1018.75
2018-09-17T07:54:47.407Z,1018.79
2018-09-17T07:55:47.988Z,1018.80
2018-09-17T07:56:48.580Z,1018.83
2018-09-17T07:57:49.154Z,1018.80
2018-09-17T07:58:49.794Z,1018.87
2018-09-17T07:59:50.318Z,1018.86
2018-09-17T08:00:50.899Z,1018.92
2018-09-17T08:01:51.529Z,1018.88
2018-09-17T08:02:52.118Z,1018.89
2018-09-17T08:03:52.746Z,1018.91
2018-09-17T08:04:53.331Z,1018.86
2018-09-17T08:05:53.911Z,1018.87
2018-09-17T08:06:54.497Z,1018.86
2018-09-17T08:07:55.132Z,1018.87
2018-09-17T08:08:55.708Z,1018.78
2018-09-17T08:09:56.293Z,1018.90
2018-09-17T08:10:56.874Z,1018.87
2018-09-17T08:11:57.460Z,1018.95
2018-09-17T08:12:58.045Z,1018.89
2018-09-17T08:13:58.678Z,1018.97
2018-09-17T08:14:59.256Z,1018.92
2018-09-17T08:15:59.844Z,1018.90
2018-09-17T08:17:00.436Z,1018.87
2018-09-17T08:18:01.005Z,1018.91
2018-09-17T08:19:01.640Z,1018.89
2018-09-17T08:20:02.220Z,1018.88
2018-09-17T08:21:02.853Z,1018.90
2018-09-17T08:22:03.436Z,1018.92
2018-09-17T08:23:04.021Z,1018.90
2018-09-17T08:24:04.599Z,1018.95
2018-09-17T08:25:05.178Z,1018.93
2018-09-17T08:26:05.763Z,1018.98
2018-09-17T08:27:06.345Z,1018.97
2018-09-17T08:28:06.932Z,1018.97
2018-09-17T08:29:07.556Z,1018.99
2018-09-17T08:30:08.142Z,1018.94
2018-09-17T08:31:08.723Z,1019.01
2018-09-17T08:32:09.357Z,1019.02
2018-09-17T08:33:09.933Z,1019.00
2018-09-17T08:34:10.518Z,1019.03
2018-09-17T08:35:11.142Z,1019.01
2018-09-17T08:36:11.751Z,1019.12
2018-09-17T08:37:12.355Z,1019.13
2018-09-17T08:38:13.026Z,1019.14
2018-09-17T08:39:13.572Z,1019.17
2018-09-17T08:40:14.205Z,1019.16
2018-09-17T08:41:14.836Z,1019.18
2018-09-17T08:42:15.421Z,1019.18
2018-09-17T08:43:16.006Z,1019.24
2018-09-17T08:44:16.590Z,1019.24
2018-09-17T08:45:17.183Z,1019.23
2018-09-17T08:46:17.815Z,1019.19
2018-09-17T08:47:18.398Z,1019.19
2018-09-17T08:48:18.982Z,1019.23
2018-09-17T08:49:19.568Z,1019.28
2018-09-17T08:50:20.152Z,1019.27
2018-09-17T08:51:20.730Z,1019.27
2018-09-17T08:52:21.401Z,1019.28
2018-09-17T08:53:21.897Z,1019.26
2018-09-17T08:54:22.529Z,1019.25
2018-09-17T08:55:23.115Z,1019.25
2018-09-17T08:56:23.747Z,1019.26
2018-09-17T08:57:24.332Z,1019.36
2018-09-17T08:58:24.978Z,1019.31
2018-09-17T08:59:25.548Z,1019.37
2018-09-17T09:00:26.123Z,1019.43
2018-09-17T09:01:26.701Z,1019.36
2018-09-17T09:02:27.329Z,1019.41
2018-09-17T09:03:27.915Z,1019.41
2018-09-17T09:04:28.542Z,1019.36
2018-09-17T09:05:29.134Z,1019.47
2018-09-17T09:06:29.767Z,1019.40
2018-09-17T09:07:30.401Z,1019.35
2018-09-17T09:08:30.979Z,1019.37
2018-09-17T09:09:31.572Z,1019.35
2018-09-17T09:10:32.205Z,1019.34
2018-09-17T09:11:32.783Z,1019.42
2018-09-17T09:12:33.373Z,1019.43
2018-09-17T09:13:34.003Z,1019.37
2018-09-17T09:14:34.584Z,1019.30
2018-09-17T09:15:35.169Z,1019.36
2018-09-17T09:16:35.799Z,1019.34
2018-09-17T09:17:36.435Z,1019.39
2018-09-17T09:18:37.019Z,1019.39
2018-09-17T09:19:37.702Z,1019.40
2018-09-17T09:20:38.234Z,1019.39
2018-09-17T09:21:38.819Z,1019.42
2018-09-17T09:22:39.403Z,1019.43
2018-09-17T09:23:39.989Z,1019.44
2018-09-17T09:24:40.566Z,1019.35
2018-09-17T09:25:41.147Z,1019.42
2018-09-17T09:26:41.732Z,1019.36
2018-09-17T09:27:42.319Z,1019.30
2018-09-17T09:28:42.896Z,1019.34
2018-09-17T09:29:43.485Z,1019.35
2018-09-17T09:30:44.082Z,1019.38
2018-09-17T09:31:44.748Z,1019.32
2018-09-17T09:32:45.332Z,1019.39
2018-09-17T09:33:45.918Z,1019.36
2018-09-17T09:34:46.552Z,1019.41
2018-09-17T09:35:47.132Z,1019.41
2018-09-17T09:36:47.770Z,1019.34
2018-09-17T09:37:48.356Z,1019.40
2018-09-17T09:38:48.941Z,1019.29
2018-09-17T09:39:49.527Z,1019.40
2018-09-17T09:40:50.112Z,1019.46
2018-09-17T09:41:50.698Z,1019.46
2018-09-17T09:42:51.329Z,1019.38
2018-09-17T09:43:51.971Z,1019.33
2018-09-17T09:44:52.592Z,1019.34
2018-09-17T09:45:53.177Z,1019.34
2018-09-17T09:46:53.759Z,1019.40
2018-09-17T09:47:54.349Z,1019.39
2018-09-17T09:48:54.984Z,1019.34
2018-09-17T09:49:55.571Z,1019.39
2018-09-17T09:50:56.154Z,1019.35
2018-09-17T09:51:56.786Z,1019.48
2018-09-17T09:52:57.421Z,1019.41
2018-09-17T09:53:58.003Z,1019.40
2018-09-17T09:54:58.594Z,1019.42
2018-09-17T09:55:59.179Z,1019.42
2018-09-17T09:56:59.757Z,1019.31
2018-09-17T09:58:00.341Z,1019.41
2018-09-17T09:59:00.923Z,1019.35
2018-09-17T10:00:01.510Z,1019.33
2018-09-17T10:01:02.095Z,1019.37
2018-09-17T10:02:02.675Z,1019.46
2018-09-17T10:03:03.264Z,1019.48
2018-09-17T10:04:03.893Z,1019.39
2018-09-17T10:05:04.478Z,1019.40
2018-09-17T10:06:05.057Z,1019.36
2018-09-17T10:07:05.646Z,1019.34
2018-09-17T10:08:06.270Z,1019.32
2018-09-17T10:09:06.907Z,1019.30
2018-09-17T10:10:07.489Z,1019.40
2018-09-17T10:11:08.076Z,1019.31
2018-09-17T10:12:08.665Z,1019.25
2018-09-17T10:13:09.250Z,1019.23
2018-09-17T10:14:09.837Z,1019.29
2018-09-17T10:15:10.475Z,1019.32
2018-09-17T10:16:11.055Z,1019.26
2018-09-17T10:17:11.642Z,1019.32
2018-09-17T10:18:12.222Z,1019.28
2018-09-17T10:19:12.904Z,1019.36
2018-09-17T10:20:13.435Z,1019.36
2018-09-17T10:21:14.019Z,1019.33
2018-09-17T10:22:14.603Z,1019.35
2018-09-17T10:23:15.181Z,1019.30
2018-09-17T10:24:15.804Z,1019.39
2018-09-17T10:25:16.395Z,1019.33
2018-09-17T10:26:17.030Z,1019.38
2018-09-17T10:27:17.613Z,1019.29
2018-09-17T10:28:18.197Z,1019.39
2018-09-17T10:29:18.782Z,1019.39
2018-09-17T10:30:19.364Z,1019.33
2018-09-17T10:31:19.946Z,1019.33
2018-09-17T10:32:20.530Z,1019.41
2018-09-17T10:33:21.168Z,1019.43
2018-09-17T10:34:21.800Z,1019.43
2018-09-17T10:35:22.384Z,1019.41
2018-09-17T10:36:22.967Z,1019.39
2018-09-17T10:37:23.544Z,1019.48
2018-09-17T10:38:24.127Z,1019.43
2018-09-17T10:39:24.814Z,1019.36
2018-09-17T10:40:25.342Z,1019.38
2018-09-17T10:41:25.920Z,1019.35
2018-09-17T10:42:26.507Z,1019.34
2018-09-17T10:43:27.091Z,1019.28
2018-09-17T10:44:27.670Z,1019.34
2018-09-17T10:45:28.308Z,1019.24
2018-09-17T10:46:28.896Z,1019.28
2018-09-17T10:47:29.482Z,1019.35
2018-09-17T10:48:30.128Z,1019.30
2018-09-17T10:49:30.708Z,1019.30
2018-09-17T10:50:31.294Z,1019.28
2018-09-17T10:51:31.887Z,1019.25
2018-09-17T10:52:32.476Z,1019.24
2018-09-17T10:53:33.113Z,1019.28
2018-09-17T10:54:33.700Z,1019.28
2018-09-17T10:55:34.286Z,1019.34
2018-09-17T10:56:34.871Z,1019.31
2018-09-17T10:57:35.458Z,1019.27
2018-09-17T10:58:36.051Z,1019.25
2018-09-17T10:59:36.641Z,1019.26
2018-09-17T11:00:37.271Z,1019.30
2018-09-17T11:01:37.858Z,1019.31
2018-09-17T11:02:38.451Z,1019.19
2018-09-17T11:03:39.040Z,1019.29
2018-09-17T11:04:39.624Z,1019.27
2018-09-17T11:05:40.309Z,1019.27
2018-09-17T11:06:40.939Z,1019.21
2018-09-17T11:07:41.532Z,1019.22
2018-09-17T11:08:42.116Z,1019.26
2018-09-17T11:09:42.707Z,1019.16
2018-09-17T11:10:43.344Z,1019.22
2018-09-17T11:11:43.934Z,1019.18
2018-09-17T11:12:44.516Z,1019.22
2018-09-17T11:13:45.109Z,1019.21
2018-09-17T11:14:45.700Z,1019.17
2018-09-17T11:15:46.334Z,1019.23
2018-09-17T11:16:46.925Z,1019.16
2018-09-17T11:17:47.594Z,1019.22
2018-09-17T11:18:48.102Z,1019.17
2018-09-17T11:19:48.697Z,1019.21
2018-09-17T11:20:49.339Z,1019.22
2018-09-17T11:21:49.924Z,1019.28
2018-09-17T11:22:50.516Z,1019.18
2018-09-17T11:23:51.100Z,1019.26
2018-09-17T11:24:51.692Z,1019.26
2018-09-17T11:25:52.327Z,1019.18
2018-09-17T11:26:52.919Z,1019.26
2018-09-17T11:27:53.512Z,1019.20
2018-09-17T11:28:54.097Z,1019.27
2018-09-17T11:29:54.688Z,1019.23
2018-09-17T11:30:55.378Z,1019.22
2018-09-17T11:31:56.067Z,1019.16
2018-09-17T11:32:56.655Z,1019.10
2018-09-17T11:33:57.238Z,1019.23
2018-09-17T11:34:57.831Z,1019.26
2018-09-17T11:35:58.420Z,1019.16
2018-09-17T11:36:59.013Z,1019.24
2018-09-17T11:37:59.704Z,1019.27
2018-09-17T11:39:00.290Z,1019.20
2018-09-17T11:40:00.883Z,1019.22
2018-09-17T11:41:01.525Z,1019.26
2018-09-17T11:42:02.061Z,1019.20
2018-09-17T11:43:02.649Z,1019.26
2018-09-17T11:44:03.242Z,1019.21
2018-09-17T11:45:03.833Z,1019.18
2018-09-17T11:46:04.424Z,1019.17
2018-09-17T11:47:05.097Z,1019.21
2018-09-17T11:48:05.835Z,1019.20
2018-09-17T11:49:06.399Z,1019.11
2018-09-17T11:50:06.991Z,1019.21
2018-09-17T11:51:07.583Z,1019.17
2018-09-17T11:52:08.179Z,1019.12
2018-09-17T11:53:08.785Z,1019.16
2018-09-17T11:54:09.384Z,1019.19
2018-09-17T11:55:09.997Z,1019.18
2018-09-17T11:56:10.586Z,1019.09
2018-09-17T11:57:11.173Z,1019.10
2018-09-17T11:58:11.762Z,1019.14
2018-09-17T11:59:12.351Z,1019.09
2018-09-17T12:00:12.941Z,1019.17
2018-09-17T12:01:13.538Z,1019.13
2018-09-17T12:02:14.183Z,1019.15
2018-09-17T12:03:14.812Z,1019.13
2018-09-17T12:04:15.404Z,1019.12
2018-09-17T12:05:16.049Z,1019.06
2018-09-17T12:06:16.640Z,1019.08
2018-09-17T12:07:17.278Z,1019.00
2018-09-17T12:08:17.870Z,1019.04
2018-09-17T12:09:18.495Z,1019.02
2018-09-17T12:10:19.056Z,1019.02
2018-09-17T12:11:19.641Z,1018.99
2018-09-17T12:12:20.233Z,1018.99
2018-09-17T12:13:20.819Z,1018.99
2018-09-17T12:14:21.411Z,1018.91
2018-09-17T12:15:22.002Z,1018.97